Time;durP1;ratioP1;P1;durP2;ratioP2;P2;SDS_P1;SDS_P2;PMS_P1;PMS_P2;Temp;Humidity;BMP_temperature;BMP_pressure;BME280_temperature;BME280_humidity;BME280_pressure;Samples;Min_cycle;Max_cycle;Signal;HPM_P1;HPM_P2
2021/03/12 00:00:45;;;;;;;13.00;2.60;;;4.40;99.90;;;;;;5080910;28;20036;-65
2021/03/12 00:03:15;;;;;;;6.75;2.40;;;4.40;99.90;;;;;;5081398;28;20044;-66
2021/03/12 00:05:42;;;;;;;7.20;2.00;;;4.30;99.90;;;;;;5081533;28;20040;-66
2021/03/12 00:08:08;;;;;;;6.95;2.03;;;4.30;99.90;;;;;;5080164;28;20119;-64
2021/03/12 00:10:34;;;;;;;5.22;1.92;;;4.30;99.90;;;;;;5080024;28;20047;-63
2021/03/12 00:12:59;;;;;;;7.38;2.53;;;4.30;99.90;;;;;;5076543;28;20036;-64
2021/03/12 00:15:25;;;;;;;;;;;4.30;99.90;;;;;;5069855;28;20056;-63
2021/03/12 00:17:51;;;;;;;6.57;2.10;;;4.20;99.90;;;;;;5066885;28;19924;-63
2021/03/12 00:20:20;;;;;;;10.98;2.75;;;4.20;99.90;;;;;;5067716;28;20029;-64
2021/03/12 00:22:47;;;;;;;10.63;2.05;;;4.20;99.90;;;;;;5067743;28;20037;-63
2021/03/12 00:25:18;;;;;;;10.70;2.55;;;4.20;99.90;;;;;;5067292;28;20033;-63
2021/03/12 00:27:44;;;;;;;4.72;2.08;;;4.20;99.90;;;;;;5063374;28;20044;-63
2021/03/12 00:30:11;;;;;;;6.28;2.53;;;4.30;99.90;;;;;;5066504;28;20029;-63
2021/03/12 00:32:37;;;;;;;5.18;1.98;;;4.30;99.90;;;;;;5045423;28;20077;-63
2021/03/12 00:35:04;;;;;;;10.90;4.25;;;4.30;99.90;;;;;;5044166;28;20091;-63
2021/03/12 00:37:30;;;;;;;5.03;1.92;;;4.30;99.90;;;;;;5044641;28;20040;-64
2021/03/12 00:39:56;;;;;;;8.48;3.35;;;4.20;99.90;;;;;;5044261;28;20547;-63
2021/03/12 00:42:21;;;;;;;;;;;4.20;99.90;;;;;;5045457;28;20040;-63
2021/03/12 00:44:47;;;;;;;8.88;2.50;;;4.30;99.90;;;;;;5042401;28;19917;-63
2021/03/12 00:47:13;;;;;;;;;;;4.30;99.90;;;;;;5063759;28;20033;-63
2021/03/12 00:49:38;;;;;;;6.57;2.00;;;4.20;99.90;;;;;;5066701;28;19986;-63
2021/03/12 00:52:04;;;;;;;3.50;2.00;;;4.20;99.90;;;;;;5068001;28;20511;-63
2021/03/12 00:54:30;;;;;;;10.95;1.95;;;4.10;99.90;;;;;;5066540;28;20052;-63
2021/03/12 00:56:56;;;;;;;;;;;4.10;99.90;;;;;;5065783;28;20036;-63
2021/03/12 00:59:21;;;;;;;9.67;3.50;;;4.10;99.90;;;;;;5066998;28;19923;-63
2021/03/12 01:01:47;;;;;;;4.60;2.20;;;4.10;99.90;;;;;;5066097;28;20612;-63
2021/03/12 01:04:13;;;;;;;3.90;1.75;;;4.10;99.90;;;;;;5060102;28;20506;-63
2021/03/12 01:06:38;;;;;;;4.55;2.15;;;4.00;99.90;;;;;;5053333;28;20064;-63
2021/03/12 01:09:04;;;;;;;3.38;1.58;;;4.00;99.90;;;;;;5067139;28;20125;-63
2021/03/12 01:11:30;;;;;;;3.53;2.08;;;4.00;99.90;;;;;;5066047;28;20037;-63
2021/03/12 01:13:56;;;;;;;7.00;2.83;;;4.00;99.90;;;;;;5060070;28;20097;-63
2021/03/12 01:16:21;;;;;;;6.28;2.45;;;4.00;99.90;;;;;;5051908;28;20041;-64
2021/03/12 01:18:47;;;;;;;5.63;2.13;;;4.00;99.90;;;;;;5043424;28;20037;-63
2021/03/12 01:21:13;;;;;;;3.10;1.88;;;4.00;99.90;;;;;;5046674;28;20040;-63
2021/03/12 01:23:38;;;;;;;;;;;4.00;99.90;;;;;;5046854;28;20428;-63
2021/03/12 01:26:04;;;;;;;7.03;2.30;;;3.90;99.90;;;;;;5044963;28;19927;-63
2021/03/12 01:28:29;;;;;;;5.53;1.98;;;3.90;99.90;;;;;;5045959;28;20386;-63
2021/03/12 01:30:55;;;;;;;7.18;2.10;;;3.90;99.90;;;;;;5045575;28;20033;-63
2021/03/12 01:33:21;;;;;;;7.72;2.28;;;3.80;99.90;;;;;;5046763;28;20661;-64
2021/03/12 01:35:47;;;;;;;5.57;1.98;;;3.80;99.90;;;;;;5045529;28;20408;-64
2021/03/12 01:38:12;;;;;;;8.07;2.40;;;3.70;99.90;;;;;;5046409;28;20460;-64
2021/03/12 01:40:41;;;;;;;;;;;3.80;99.90;;;;;;5047715;28;20109;-63
2021/03/12 01:43:06;;;;;;;5.43;2.25;;;3.80;99.90;;;;;;5038946;28;20108;-63
2021/03/12 01:45:40;;;;;;;8.50;2.28;;;3.90;99.90;;;;;;5046300;28;20309;-64
2021/03/12 01:48:11;;;;;;;10.52;2.30;;;3.80;99.90;;;;;;5046044;28;20094;-63
2021/03/12 01:50:38;;;;;;;6.45;2.60;;;3.80;99.90;;;;;;5045891;28;20049;-64
2021/03/12 01:53:10;;;;;;;6.78;2.60;;;3.90;99.90;;;;;;5046548;28;20095;-63
2021/03/12 01:55:37;;;;;;;7.63;2.22;;;3.80;99.90;;;;;;5045929;28;20037;-63
2021/03/12 01:58:04;;;;;;;6.78;3.15;;;3.80;99.90;;;;;;5045544;28;20459;-64
2021/03/12 02:00:30;;;;;;;6.82;2.40;;;3.90;99.90;;;;;;5045628;28;20036;-63
2021/03/12 02:02:57;;;;;;;10.07;2.97;;;3.80;99.90;;;;;;5044291;28;20390;-64
2021/03/12 02:05:24;;;;;;;4.90;2.85;;;3.80;99.90;;;;;;5044592;28;20045;-63
2021/03/12 02:07:51;;;;;;;11.82;3.00;;;3.80;99.90;;;;;;5043684;28;20105;-64
2021/03/12 02:10:21;;;;;;;9.88;2.40;;;3.80;99.90;;;;;;5044322;28;20107;-63
2021/03/12 02:12:56;;;;;;;9.80;2.92;;;3.80;99.90;;;;;;5041529;28;20094;-64
2021/03/12 02:15:34;;;;;;;8.10;2.60;;;3.80;99.90;;;;;;5041577;28;20037;-64
2021/03/12 02:18:10;;;;;;;7.93;2.67;;;3.80;99.90;;;;;;5041333;28;20041;-63
2021/03/12 02:20:53;;;;;;;6.70;2.38;;;3.90;99.90;;;;;;5041382;28;20482;-63
2021/03/12 02:23:49;;;;;;;10.23;3.78;;;3.90;99.90;;;;;;5044170;28;20044;-63
2021/03/12 02:26:39;;;;;;;11.32;3.80;;;3.90;99.90;;;;;;5037106;28;20041;-64
2021/03/12 02:29:08;;;;;;;7.28;3.25;;;3.80;99.90;;;;;;5041632;28;20094;-63
2021/03/12 02:31:36;;;;;;;6.22;2.58;;;3.80;99.90;;;;;;5058853;28;20132;-64
2021/03/12 02:34:07;;;;;;;8.27;2.50;;;3.80;99.90;;;;;;5043637;28;20055;-64
2021/03/12 02:36:35;;;;;;;4.47;2.10;;;3.80;99.90;;;;;;5044288;28;20509;-63
2021/03/12 02:39:02;;;;;;;9.32;1.92;;;3.80;99.90;;;;;;5041480;28;20117;-63
2021/03/12 02:41:29;;;;;;;3.53;1.83;;;3.80;99.90;;;;;;5043500;28;20389;-63
2021/03/12 02:43:57;;;;;;;2.42;1.65;;;3.80;99.90;;;;;;5043792;28;20102;-63
2021/03/12 02:46:24;;;;;;;2.95;1.40;;;3.70;99.90;;;;;;5040855;28;20574;-63
2021/03/12 02:48:52;;;;;;;3.30;1.65;;;3.70;99.90;;;;;;5040768;28;20552;-63
2021/03/12 02:51:18;;;;;;;2.63;1.42;;;3.70;99.90;;;;;;5041455;28;20037;-63
2021/03/12 02:53:47;;;;;;;3.50;1.30;;;3.70;99.90;;;;;;5044667;28;20044;-64
2021/03/12 02:56:14;;;;;;;3.55;1.55;;;3.60;99.90;;;;;;5044385;28;20083;-63
2021/03/12 02:58:42;;;;;;;4.07;1.83;;;3.60;99.90;;;;;;5042496;28;20045;-63
2021/03/12 03:01:09;;;;;;;7.35;2.30;;;3.60;99.90;;;;;;5045522;28;20799;-64
2021/03/12 03:03:36;;;;;;;3.90;2.33;;;3.50;99.90;;;;;;5045171;28;20049;-63
2021/03/12 03:06:05;;;;;;;4.78;2.30;;;3.40;99.90;;;;;;5047318;28;20040;-63
2021/03/12 03:08:33;;;;;;;5.93;2.35;;;3.30;99.90;;;;;;5047755;28;20037;-63
2021/03/12 03:11:00;;;;;;;6.40;3.22;;;3.20;99.90;;;;;;5045378;28;20037;-63
2021/03/12 03:13:43;;;;;;;8.00;2.95;;;3.20;99.90;;;;;;5045457;28;20041;-63
2021/03/12 03:16:17;;;;;;;9.70;3.10;;;3.20;99.90;;;;;;5039484;28;20041;-63
2021/03/12 03:18:43;;;;;;;6.20;3.05;;;3.30;99.90;;;;;;5042100;28;20037;-62
2021/03/12 03:21:10;;;;;;;9.90;3.72;;;3.30;99.90;;;;;;5045879;28;20040;-63
2021/03/12 03:23:41;;;;;;;7.95;3.35;;;3.30;99.90;;;;;;5045367;28;20524;-63
2021/03/12 03:26:07;;;;;;;8.40;3.45;;;3.30;99.90;;;;;;5045240;28;20120;-63
2021/03/12 03:28:34;;;;;;;11.98;3.85;;;3.30;99.90;;;;;;5044508;28;20140;-63
2021/03/12 03:31:01;;;;;;;10.10;4.18;;;3.40;99.90;;;;;;5047837;28;20738;-63
2021/03/12 03:33:27;;;;;;;10.38;4.53;;;3.40;99.90;;;;;;5051246;28;20048;-62
2021/03/12 03:35:53;;;;;;;11.30;3.20;;;3.40;99.90;;;;;;5044609;28;20041;-64
2021/03/12 03:38:18;;;;;;;12.23;3.90;;;3.40;99.90;;;;;;5043141;28;20040;-63
2021/03/12 03:40:44;;;;;;;8.48;4.03;;;3.40;99.90;;;;;;5049188;28;20079;-63
2021/03/12 03:43:12;;;;;;;10.55;3.85;;;3.40;99.90;;;;;;5052396;28;20045;-63
2021/03/12 03:45:39;;;;;;;7.47;4.13;;;3.40;99.90;;;;;;5060938;28;20095;-64
2021/03/12 03:48:07;;;;;;;11.95;4.20;;;3.40;99.90;;;;;;5055330;28;20102;-63
2021/03/12 03:50:37;;;;;;;5.95;3.50;;;3.40;99.90;;;;;;5069592;28;20046;-64
2021/03/12 03:53:05;;;;;;;16.33;4.20;;;3.40;99.90;;;;;;5067958;28;20071;-63
2021/03/12 03:55:31;;;;;;;9.63;3.80;;;3.30;99.90;;;;;;5050111;28;20669;-64
2021/03/12 03:57:59;;;;;;;9.48;4.32;;;3.30;99.90;;;;;;5062630;28;20396;-63
2021/03/12 04:00:25;;;;;;;12.18;4.25;;;3.40;99.90;;;;;;5058362;28;20102;-63
2021/03/12 04:02:51;;;;;;;12.20;4.22;;;3.40;99.90;;;;;;5061680;28;20041;-64
2021/03/12 04:05:18;;;;;;;12.20;4.10;;;3.40;99.90;;;;;;5059305;28;20063;-63
2021/03/12 04:07:44;;;;;;;13.38;4.45;;;3.40;99.90;;;;;;5066514;28;20043;-64
2021/03/12 04:10:11;;;;;;;21.73;5.55;;;3.40;99.90;;;;;;5083391;28;20036;-63
2021/03/12 04:12:38;;;;;;;8.23;4.30;;;3.40;99.90;;;;;;5078980;28;20121;-64
2021/03/12 04:15:06;;;;;;;9.70;4.10;;;3.50;99.90;;;;;;5073974;28;20036;-63
2021/03/12 04:17:33;;;;;;;13.77;4.40;;;3.40;99.90;;;;;;5054293;28;20068;-64
2021/03/12 04:20:00;;;;;;;10.60;4.88;;;3.40;99.90;;;;;;5067849;28;20512;-64
2021/03/12 04:22:26;;;;;;;10.55;3.42;;;3.40;99.90;;;;;;5077888;28;20051;-63
2021/03/12 04:24:52;;;;;;;8.20;3.67;;;3.40;99.90;;;;;;5079889;28;20127;-64
2021/03/12 04:27:19;;;;;;;14.30;4.25;;;3.40;99.90;;;;;;5083232;28;20601;-63
2021/03/12 04:29:45;;;;;;;7.40;3.70;;;3.40;99.90;;;;;;5079081;28;20040;-64
2021/03/12 04:32:11;;;;;;;11.35;3.40;;;3.40;99.90;;;;;;5079059;28;20032;-64
2021/03/12 04:34:37;;;;;;;18.52;3.95;;;3.40;99.90;;;;;;5082488;28;20039;-63
2021/03/12 04:37:03;;;;;;;;;;;3.30;99.90;;;;;;5082761;28;20445;-63
2021/03/12 04:39:29;;;;;;;7.13;3.42;;;3.30;99.90;;;;;;5080429;28;20020;-64
2021/03/12 04:41:55;;;;;;;9.52;3.00;;;3.30;99.90;;;;;;5073860;28;20037;-63
2021/03/12 04:44:21;;;;;;;9.95;3.47;;;3.20;99.90;;;;;;5073677;28;20058;-64
2021/03/12 04:46:48;;;;;;;10.90;2.75;;;3.20;99.90;;;;;;5076370;28;20047;-63
2021/03/12 04:49:14;;;;;;;12.55;3.15;;;3.30;99.90;;;;;;5074080;28;20496;-63
2021/03/12 04:51:43;;;;;;;6.70;2.67;;;3.30;99.90;;;;;;5081759;28;20047;-63
2021/03/12 04:54:11;;;;;;;10.10;2.03;;;3.30;99.90;;;;;;5056247;28;20091;-63
2021/03/12 04:56:37;;;;;;;4.70;2.10;;;3.30;99.90;;;;;;5063706;28;20045;-63
2021/03/12 04:59:04;;;;;;;5.40;2.47;;;3.30;99.90;;;;;;5075057;28;20062;-64
2021/03/12 05:01:30;;;;;;;6.22;2.15;;;3.30;99.90;;;;;;5071131;28;20045;-63
2021/03/12 05:03:56;;;;;;;7.45;2.53;;;3.30;99.90;;;;;;5064598;28;20047;-63
2021/03/12 05:06:22;;;;;;;10.95;2.90;;;3.30;99.90;;;;;;5066053;28;20036;-63
2021/03/12 05:08:48;;;;;;;9.25;2.88;;;3.30;99.90;;;;;;5065363;28;20496;-63
2021/03/12 05:11:15;;;;;;;7.95;2.83;;;3.30;99.90;;;;;;5079683;28;20032;-65
2021/03/12 05:13:41;;;;;;;7.80;2.80;;;3.30;99.90;;;;;;5087852;28;20043;-63
2021/03/12 05:16:06;;;;;;;7.00;2.28;;;3.30;99.90;;;;;;5088115;28;20039;-64
2021/03/12 05:18:32;;;;;;;12.55;3.22;;;3.20;99.90;;;;;;5070802;28;20052;-65
2021/03/12 05:20:58;;;;;;;10.15;2.83;;;3.20;99.90;;;;;;5063347;28;20560;-64
2021/03/12 05:23:24;;;;;;;8.88;2.70;;;3.20;99.90;;;;;;5062093;28;20075;-63
2021/03/12 05:25:50;;;;;;;9.07;2.80;;;3.10;99.90;;;;;;5058540;28;20040;-65
2021/03/12 05:28:16;;;;;;;6.65;2.08;;;3.10;99.90;;;;;;5066517;28;20071;-63
2021/03/12 05:30:42;;;;;;;5.75;2.20;;;3.10;99.90;;;;;;5062253;28;20033;-64
2021/03/12 05:33:08;;;;;;;4.28;1.63;;;3.00;99.90;;;;;;5046607;28;20143;-69
2021/03/12 05:35:34;;;;;;;7.63;2.58;;;3.00;99.90;;;;;;5062727;28;20588;-68
2021/03/12 05:38:01;;;;;;;4.07;2.15;;;2.90;99.90;;;;;;5066548;28;20510;-63
2021/03/12 05:40:26;;;;;;;11.43;2.55;;;2.90;99.90;;;;;;5066945;28;20579;-67
2021/03/12 05:42:54;;;;;;;9.00;3.05;;;2.90;99.90;;;;;;5066136;28;20055;-66
2021/03/12 05:45:20;;;;;;;10.48;3.40;;;2.90;99.90;;;;;;5066151;28;20075;-66
2021/03/12 05:47:47;;;;;;;12.32;3.28;;;2.90;99.90;;;;;;5056768;28;20508;-67
2021/03/12 05:50:15;;;;;;;14.85;3.92;;;2.90;99.90;;;;;;5061687;28;20059;-64
2021/03/12 05:52:41;;;;;;;8.45;3.20;;;2.90;99.90;;;;;;5059888;28;20045;-66
2021/03/12 05:55:09;;;;;;;13.68;4.10;;;3.00;99.90;;;;;;5055553;28;20097;-61
2021/03/12 05:57:35;;;;;;;15.82;3.60;;;3.00;99.90;;;;;;5076776;28;20105;-65
2021/03/12 06:00:02;;;;;;;9.88;3.53;;;2.90;99.90;;;;;;5058115;28;20045;-65
2021/03/12 06:02:28;;;;;;;26.05;4.80;;;2.90;99.90;;;;;;5065522;28;20043;-67
2021/03/12 06:04:53;;;;;;;11.82;3.80;;;3.00;99.90;;;;;;5061185;28;20036;-66
2021/03/12 06:07:19;;;;;;;10.23;2.95;;;3.00;99.90;;;;;;5061976;28;20433;-64
2021/03/12 06:09:45;;;;;;;9.80;3.10;;;3.10;99.90;;;;;;5062414;28;20173;-60
2021/03/12 06:12:12;;;;;;;13.15;2.95;;;3.20;99.90;;;;;;5055761;28;20130;-63
2021/03/12 06:14:54;;;;;;;12.73;3.30;;;3.20;99.90;;;;;;5052106;28;20318;-64
2021/03/12 06:17:58;;;;;;;7.60;2.55;;;3.20;99.90;;;;;;5048919;28;20039;-63
2021/03/12 06:20:24;;;;;;;9.07;2.22;;;3.30;99.90;;;;;;4996725;28;20137;-64
2021/03/12 06:22:55;;;;;;;10.82;2.63;;;3.30;99.90;;;;;;5002894;28;20041;-64
2021/03/12 06:25:29;;;;;;;11.05;2.22;;;3.30;99.90;;;;;;5021875;28;20045;-63
2021/03/12 06:27:56;;;;;;;17.10;2.83;;;3.40;99.90;;;;;;5061345;28;20127;-63
2021/03/12 06:30:24;;;;;;;14.82;3.47;;;3.50;99.90;;;;;;5056681;28;20132;-63
2021/03/12 06:32:55;;;;;;;12.10;2.97;;;3.50;99.90;;;;;;5051352;28;20412;-63
2021/03/12 06:35:25;;;;;;;10.25;3.30;;;3.60;99.90;;;;;;5059024;28;20036;-64
2021/03/12 06:37:53;;;;;;;19.50;4.35;;;3.70;99.90;;;;;;5064240;28;20041;-64
2021/03/12 06:40:27;;;;;;;11.25;2.72;;;3.80;99.90;;;;;;5060804;28;20040;-64
2021/03/12 06:43:05;;;;;;;10.73;3.40;;;4.20;99.90;;;;;;5055953;28;20040;-65
2021/03/12 06:45:37;;;;;;;18.95;3.25;;;4.50;99.90;;;;;;5048808;28;20037;-65
2021/03/12 06:48:26;;;;;;;11.63;2.88;;;4.60;99.90;;;;;;5046068;28;20040;-64
2021/03/12 06:50:52;;;;;;;9.65;2.90;;;4.80;99.90;;;;;;5056458;28;20091;-63
2021/03/12 06:53:22;;;;;;;21.25;3.92;;;4.80;99.90;;;;;;5054036;28;20115;-60
2021/03/12 06:55:48;;;;;;;15.05;4.97;;;4.80;99.90;;;;;;5053791;28;20077;-62
2021/03/12 06:58:13;;;;;;;;;;;4.90;99.90;;;;;;5055505;28;20032;-62
2021/03/12 07:00:39;;;;;;;18.13;3.55;;;4.70;99.90;;;;;;5061360;28;19963;-62
2021/03/12 07:03:21;;;;;;;17.27;3.20;;;4.40;99.90;;;;;;5061914;28;20048;-64
2021/03/12 07:06:04;;;;;;;19.73;4.05;;;4.20;99.90;;;;;;5057629;28;20036;-61
2021/03/12 07:08:47;;;;;;;11.25;2.88;;;4.10;99.90;;;;;;5057462;28;20033;-61
2021/03/12 07:11:33;;;;;;;29.80;5.15;;;4.10;99.90;;;;;;5059880;28;20093;-61
2021/03/12 07:13:59;;;;;;;79.72;9.20;;;4.40;99.90;;;;;;5072651;28;20483;-61
2021/03/12 07:16:25;;;;;;;;;;;4.80;99.90;;;;;;5053814;28;20045;-59
2021/03/12 07:18:53;;;;;;;10.55;3.33;;;4.80;99.90;;;;;;5056567;28;20344;-60
2021/03/12 07:21:27;;;;;;;12.30;2.85;;;4.70;99.90;;;;;;5061726;28;20097;-61
2021/03/12 07:23:57;;;;;;;14.10;3.30;;;4.80;99.90;;;;;;5048553;28;20040;-59
2021/03/12 07:26:23;;;;;;;10.80;3.05;;;4.90;99.90;;;;;;5054389;28;20068;-60
2021/03/12 07:28:53;;;;;;;14.85;3.28;;;5.00;99.90;;;;;;5068101;28;20036;-61
2021/03/12 07:31:20;;;;;;;16.40;4.50;;;5.00;99.90;;;;;;5062442;28;20071;-61
2021/03/12 07:33:51;;;;;;;40.33;9.32;;;5.20;99.90;;;;;;5071918;28;20420;-61
2021/03/12 07:36:24;;;;;;;65.70;8.50;;;5.40;99.90;;;;;;5078345;28;20510;-61
2021/03/12 07:38:51;;;;;;;20.90;4.82;;;5.50;99.90;;;;;;5072728;28;20110;-59
2021/03/12 07:41:17;;;;;;;21.05;4.18;;;5.40;99.90;;;;;;5067176;28;20035;-59
2021/03/12 07:43:43;;;;;;;;;;;5.30;99.90;;;;;;5061237;28;20037;-61
2021/03/12 07:46:12;;;;;;;5.85;2.33;;;5.20;99.90;;;;;;5058858;28;19951;-61
2021/03/12 07:48:37;;;;;;;16.35;4.72;;;5.00;99.90;;;;;;5066087;28;20059;-61
2021/03/12 07:51:03;;;;;;;;;;;4.80;99.90;;;;;;5056825;28;20689;-59
2021/03/12 07:53:48;;;;;;;13.20;3.72;;;4.90;99.90;;;;;;5058488;28;19927;-61
2021/03/12 07:56:15;;;;;;;10.60;3.30;;;5.30;99.90;;;;;;5055736;28;20480;-60
2021/03/12 07:58:55;;;;;;;11.25;3.65;;;5.70;99.90;;;;;;5051933;28;20071;-61
2021/03/12 08:01:23;;;;;;;14.40;2.88;;;6.10;99.90;;;;;;5060854;22;20033;-78
2021/03/12 08:03:50;;;;;;;8.63;2.78;;;6.50;99.90;;;;;;5052423;28;20046;-80
2021/03/12 08:06:20;;;;;;;11.95;3.13;;;6.70;99.90;;;;;;5007167;28;20041;-79
2021/03/12 08:08:46;;;;;;;10.95;2.78;;;6.60;99.90;;;;;;5021398;28;20061;-80
2021/03/12 08:11:18;;;;;;;16.80;3.83;;;6.60;99.90;;;;;;5006223;28;20042;-81
2021/03/12 08:13:45;;;;;;;17.17;4.05;;;6.90;99.90;;;;;;5006694;28;20495;-80
2021/03/12 08:16:11;;;;;;;11.57;3.42;;;7.50;99.90;;;;;;5008385;28;20157;-82
2021/03/12 08:18:36;;;;;;;;;;;7.60;98.70;;;;;;5012303;28;20491;-79
2021/03/12 08:21:29;;;;;;;16.15;3.40;;;7.80;98.10;;;;;;5012839;28;19924;-79
2021/03/12 08:23:56;;;;;;;13.32;3.95;;;7.50;98.00;;;;;;5019171;28;20041;-79
2021/03/12 08:26:54;;;;;;;21.73;4.40;;;6.70;99.00;;;;;;5022151;28;20084;-80
2021/03/12 08:29:43;;;;;;;14.00;3.45;;;6.60;99.80;;;;;;4985059;28;20509;-78
2021/03/12 08:32:37;;;;;;;20.42;3.35;;;6.90;98.80;;;;;;4997722;28;20033;-81
2021/03/12 08:35:06;;;;;;;23.02;3.80;;;6.50;99.50;;;;;;5018806;28;20580;-81
2021/03/12 08:37:32;;;;;;;16.58;3.10;;;6.30;99.90;;;;;;5005556;28;20494;-81
2021/03/12 08:40:16;;;;;;;;;;;6.10;99.90;;;;;;5008425;28;20048;-81
2021/03/12 08:43:03;;;;;;;18.75;3.85;;;6.00;99.90;;;;;;5008294;28;19977;-81
2021/03/12 08:45:48;;;;;;;20.08;2.83;;;5.90;99.90;;;;;;5022575;28;20502;-80
2021/03/12 08:48:20;;;;;;;11.95;4.07;;;5.80;99.90;;;;;;5023670;28;20033;-80
2021/03/12 08:50:57;;;;;;;12.45;3.00;;;5.70;99.90;;;;;;5025994;28;20045;-81
2021/03/12 08:53:25;;;;;;;11.07;3.40;;;5.60;99.90;;;;;;5003936;28;20045;-80
2021/03/12 08:55:54;;;;;;;16.33;4.20;;;5.60;99.90;;;;;;5025281;28;20152;-81
2021/03/12 08:58:31;;;;;;;11.25;3.47;;;5.90;99.90;;;;;;4993328;28;20491;-79
2021/03/12 09:01:10;;;;;;;15.75;2.97;;;5.80;99.90;;;;;;5008470;28;20060;-81
2021/03/12 09:03:36;;;;;;;17.40;4.00;;;5.80;99.90;;;;;;5003569;28;20069;-78
2021/03/12 09:06:04;;;;;;;;;;;6.00;99.90;;;;;;4997637;28;20042;-81
2021/03/12 09:08:33;;;;;;;9.50;2.40;;;6.20;99.90;;;;;;4997608;28;19920;-79
2021/03/12 09:11:01;;;;;;;9.35;2.85;;;6.40;99.90;;;;;;4995887;28;20044;-81
2021/03/12 09:13:32;;;;;;;17.35;4.13;;;6.40;99.70;;;;;;5015761;28;20050;-81
2021/03/12 09:15:59;;;;;;;10.48;2.42;;;6.40;98.70;;;;;;4990648;28;20037;-80
2021/03/12 09:18:26;;;;;;;10.77;2.78;;;6.50;99.60;;;;;;5006993;28;20037;-80
2021/03/12 09:20:55;;;;;;;10.05;2.20;;;6.40;98.70;;;;;;5010127;28;20046;-80
2021/03/12 09:23:34;;;;;;;11.73;3.38;;;6.50;99.70;;;;;;4993749;28;20061;-81
2021/03/12 09:26:01;;;;;;;14.80;2.47;;;6.50;98.70;;;;;;5008252;28;20133;-79
2021/03/12 09:28:31;;;;;;;15.07;3.17;;;6.60;98.40;;;;;;5003179;28;20048;-80
2021/03/12 09:30:58;;;;;;;8.50;2.33;;;6.70;99.20;;;;;;4995945;28;20038;-79
2021/03/12 09:33:33;;;;;;;12.15;2.35;;;6.80;98.10;;;;;;4995076;28;20066;-81
2021/03/12 09:36:27;;;;;;;13.55;2.63;;;6.60;97.60;;;;;;5003010;28;20037;-82
2021/03/12 09:38:55;;;;;;;17.38;2.25;;;6.60;97.90;;;;;;5001988;28;20049;-80
2021/03/12 09:41:24;;;;;;;12.00;2.47;;;6.70;97.90;;;;;;5000147;28;20037;-82
2021/03/12 09:44:09;;;;;;;24.30;2.45;;;6.90;97.30;;;;;;5002452;28;20076;-81
2021/03/12 09:46:40;;;;;;;10.32;2.10;;;7.00;96.50;;;;;;5005298;28;20045;-81
2021/03/12 09:49:28;;;;;;;9.02;2.10;;;6.90;96.80;;;;;;5007111;28;20077;-81
2021/03/12 09:51:58;;;;;;;14.07;2.47;;;6.70;95.10;;;;;;4999062;28;20491;-80
2021/03/12 09:54:26;;;;;;;7.93;2.13;;;6.80;96.90;;;;;;5008670;28;20049;-82
2021/03/12 09:56:55;;;;;;;8.48;1.50;;;6.80;96.40;;;;;;5004139;28;20117;-79
2021/03/12 09:59:32;;;;;;;10.35;1.98;;;6.60;96.40;;;;;;4992314;28;20486;-81
2021/03/12 10:02:05;;;;;;;19.25;2.05;;;6.60;96.40;;;;;;5001844;28;20042;-81
2021/03/12 10:04:37;;;;;;;19.00;2.85;;;6.40;96.70;;;;;;4996583;28;20041;-80
2021/03/12 10:07:05;;;;;;;16.13;3.22;;;6.30;96.20;;;;;;4993530;28;20042;-80
2021/03/12 10:09:46;;;;;;;15.60;2.45;;;6.40;97.80;;;;;;4993212;28;20060;-80
2021/03/12 10:12:25;;;;;;;14.00;2.53;;;6.50;96.80;;;;;;5005167;28;20045;-80
2021/03/12 10:15:13;;;;;;;7.13;1.55;;;6.60;96.90;;;;;;4994168;28;20056;-80
2021/03/12 10:17:40;;;;;;;9.50;1.48;;;6.60;96.30;;;;;;5016364;28;20158;-82
2021/03/12 10:20:15;;;;;;;14.82;1.75;;;6.80;96.20;;;;;;5002336;28;20037;-81
2021/03/12 10:22:43;;;;;;;9.35;2.10;;;6.90;96.30;;;;;;5020235;28;20545;-81
2021/03/12 10:25:19;;;;;;;9.77;1.60;;;7.00;96.10;;;;;;5000314;28;20045;-81
2021/03/12 10:27:47;;;;;;;;;;;7.10;95.20;;;;;;5001674;28;20040;-81
2021/03/12 10:30:22;;;;;;;8.07;2.65;;;7.30;95.60;;;;;;5008828;28;20018;-79
2021/03/12 10:32:50;;;;;;;14.13;3.47;;;7.40;95.00;;;;;;5030602;28;20054;-80
2021/03/12 10:35:16;;;;;;;8.90;2.13;;;7.50;95.10;;;;;;5008264;28;20037;-78
2021/03/12 10:37:42;;;;;;;;;;;7.60;94.70;;;;;;5008086;28;20049;-80
2021/03/12 10:40:08;;;;;;;9.73;1.80;;;7.70;94.90;;;;;;5002176;28;19939;-80
2021/03/12 10:42:34;;;;;;;13.80;2.70;;;7.60;94.00;;;;;;4997042;28;20231;-79
2021/03/12 10:45:02;;;;;;;;;;;7.50;94.50;;;;;;5005554;28;20133;-78
2021/03/12 10:47:28;;;;;;;11.73;1.60;;;7.70;95.20;;;;;;5003864;28;19917;-80
2021/03/12 10:49:55;;;;;;;9.05;1.60;;;7.90;94.30;;;;;;5010063;28;20041;-80
2021/03/12 10:52:26;;;;;;;10.02;2.35;;;7.80;93.80;;;;;;5003127;28;20047;-80
2021/03/12 10:54:52;;;;;;;12.93;1.98;;;7.60;94.40;;;;;;5005065;28;20041;-81
2021/03/12 10:57:33;;;;;;;7.95;1.77;;;7.50;94.00;;;;;;5001423;28;20486;-79
2021/03/12 10:59:59;;;;;;;10.65;1.92;;;7.80;94.70;;;;;;5002462;28;20247;-80
2021/03/12 11:02:32;;;;;;;;;;;8.20;95.40;;;;;;5005301;28;20072;-79
2021/03/12 11:04:58;;;;;;;9.05;2.65;;;8.10;92.70;;;;;;5003622;28;20654;-80
2021/03/12 11:07:23;;;;;;;;;;;7.80;94.20;;;;;;4990966;28;20045;-79
2021/03/12 11:09:50;;;;;;;7.32;1.77;;;7.40;95.40;;;;;;4990029;28;19921;-80
2021/03/12 11:12:16;;;;;;;11.93;2.00;;;6.80;97.80;;;;;;4993599;28;20165;-78
2021/03/12 11:14:43;;;;;;;;;;;6.60;99.80;;;;;;4996143;28;20136;-82
2021/03/12 11:17:09;;;;;;;6.88;1.70;;;6.70;99.90;;;;;;5022813;28;19921;-81
2021/03/12 11:19:35;;;;;;;7.10;1.23;;;6.70;99.50;;;;;;5006131;28;20045;-80
2021/03/12 11:22:02;;;;;;;;;;;6.60;99.50;;;;;;5005899;28;20125;-80
2021/03/12 11:24:27;;;;;;;5.93;1.67;;;6.60;98.80;;;;;;4998926;28;20000;-80
2021/03/12 11:26:53;;;;;;;;;;;6.50;98.50;;;;;;4990593;28;20129;-79
2021/03/12 11:29:19;;;;;;;12.60;1.65;;;6.60;98.50;;;;;;5008600;28;19952;-80
2021/03/12 11:31:45;;;;;;;;;;;6.70;98.00;;;;;;5014233;28;20049;-80
2021/03/12 11:34:11;;;;;;;11.13;1.98;;;6.70;97.80;;;;;;4998600;28;21311;-79
2021/03/12 11:36:38;;;;;;;12.60;1.95;;;6.70;97.20;;;;;;5004945;28;20045;-80
2021/03/12 11:39:04;;;;;;;;;;;6.50;96.80;;;;;;4992578;28;20046;-78
2021/03/12 11:41:30;;;;;;;13.35;1.92;;;6.60;97.30;;;;;;4997620;28;19928;-79
2021/03/12 11:43:55;;;;;;;;;;;6.80;95.70;;;;;;5010751;28;20120;-80
2021/03/12 11:46:21;;;;;;;7.13;1.80;;;7.20;96.70;;;;;;5000714;28;19925;-78
2021/03/12 11:48:47;;;;;;;;;;;7.60;96.30;;;;;;5004918;28;20049;-80
2021/03/12 11:51:13;;;;;;;5.00;1.40;;;7.60;93.30;;;;;;5001866;28;20018;-80
2021/03/12 11:53:39;;;;;;;7.65;1.60;;;7.50;92.60;;;;;;5005736;28;20045;-79
2021/03/12 11:56:05;;;;;;;;;;;7.40;92.10;;;;;;4990555;28;20045;-80
2021/03/12 11:58:30;;;;;;;9.48;1.75;;;7.30;92.10;;;;;;5007261;28;19917;-81
2021/03/12 12:00:56;;;;;;;;;;;7.20;92.20;;;;;;4996729;28;20547;-81
2021/03/12 12:03:22;;;;;;;9.98;2.20;;;7.20;91.90;;;;;;4992763;28;19940;-79
2021/03/12 12:05:48;;;;;;;;;;;7.20;92.30;;;;;;4990192;28;20038;-81
2021/03/12 12:08:14;;;;;;;5.97;1.60;;;7.10;91.30;;;;;;5007739;28;19918;-80
2021/03/12 12:10:40;;;;;;;;;;;7.30;92.10;;;;;;4992139;28;20046;-80
2021/03/12 12:13:05;;;;;;;8.13;1.45;;;7.30;91.90;;;;;;5004584;28;19917;-80
2021/03/12 12:15:31;;;;;;;;;;;7.30;91.90;;;;;;5004816;28;20064;-80
2021/03/12 12:18:05;;;;;;;13.27;1.77;;;7.50;91.80;;;;;;5003008;28;19983;-80
2021/03/12 12:20:31;;;;;;;8.60;1.42;;;7.40;91.80;;;;;;5030670;28;20126;-81
2021/03/12 12:22:58;;;;;;;9.45;1.63;;;7.30;92.10;;;;;;5002213;28;20053;-80
2021/03/12 12:25:25;;;;;;;14.57;2.05;;;7.30;92.10;;;;;;5010962;28;20042;-80
2021/03/12 12:27:51;;;;;;;10.63;1.55;;;7.30;92.40;;;;;;5019555;28;20081;-80
2021/03/12 12:30:17;;;;;;;11.77;1.42;;;7.30;91.50;;;;;;5007473;28;20041;-80
2021/03/12 12:32:43;;;;;;;;;;;7.50;92.10;;;;;;5015421;28;20053;-80
2021/03/12 12:35:10;;;;;;;9.18;3.20;;;7.40;91.20;;;;;;5006175;28;20012;-80
2021/03/12 12:37:36;;;;;;;6.78;2.63;;;7.30;90.70;;;;;;5005133;28;20045;-81
2021/03/12 12:40:04;;;;;;;;;;;7.40;91.20;;;;;;5005222;28;20069;-80
2021/03/12 12:42:32;;;;;;;6.88;1.40;;;7.30;89.80;;;;;;5000537;28;19917;-80
2021/03/12 12:44:58;;;;;;;12.32;1.50;;;7.20;90.00;;;;;;4993969;28;20062;-80
2021/03/12 12:47:24;;;;;;;11.82;1.40;;;7.10;88.90;;;;;;4992951;28;20037;-79
2021/03/12 12:49:50;;;;;;;;;;;7.00;89.90;;;;;;5011494;28;20486;-79
2021/03/12 12:52:16;;;;;;;6.65;1.90;;;7.10;90.20;;;;;;5007739;28;19921;-79
2021/03/12 12:54:41;;;;;;;;;;;7.20;90.70;;;;;;5008506;28;20041;-80
2021/03/12 12:57:08;;;;;;;6.25;1.70;;;7.30;90.30;;;;;;5001061;28;19917;-81
2021/03/12 12:59:34;;;;;;;8.27;1.60;;;7.40;90.10;;;;;;5003971;28;20037;-79
2021/03/12 13:01:59;;;;;;;;;;;7.50;89.80;;;;;;4997806;28;20407;-79
2021/03/12 13:04:25;;;;;;;13.23;1.90;;;7.40;90.00;;;;;;4994800;28;19928;-80
2021/03/12 13:06:51;;;;;;;;;;;7.30;89.80;;;;;;4992811;28;20046;-78
2021/03/12 13:09:17;;;;;;;8.43;1.17;;;7.30;88.30;;;;;;4994862;28;19979;-78
2021/03/12 13:11:43;;;;;;;9.65;1.23;;;7.20;88.40;;;;;;5009686;28;20041;-79